Terminal Aerodrome Forecast
Issued by NWS

Home | Current Version | Previous Version | Text Only | Print | Product List | Glossary On
Versions: 1 2 3 4 5 6 7 8 9 10 11 12 13 14 15 16 17
000
FTUS41 KBOX 291733
TAFBAF
TAF
KBAF 291733Z 2918/3018 08005KT P6SM -RA OVC020
     FM292000 07005KT P6SM OVC015
     FM300800 13004KT P6SM BKN015
     FM301300 16004KT P6SM BKN020=

USA.gov is the U.S. government's official web portal to all federal, state and local government web resources and services.